createdAt,value
2023-03-21T00:00:41.151Z,13.45
2023-03-21T00:03:44.241Z,13.18
2023-03-21T00:06:47.509Z,11.82
2023-03-21T00:09:50.876Z,12.47
2023-03-21T00:12:58.664Z,14.02
2023-03-21T00:19:38.523Z,12.95
2023-03-21T00:22:42.458Z,12.90
2023-03-21T00:25:46.928Z,11.90
2023-03-21T00:28:50.950Z,14.15
2023-03-21T00:31:56.532Z,12.88
2023-03-21T00:35:23.330Z,14.48
2023-03-21T00:38:25.733Z,13.88
2023-03-21T00:41:42.644Z,12.80
2023-03-21T00:44:45.953Z,12.60
2023-03-21T00:47:49.354Z,13.15
2023-03-21T00:50:57.226Z,12.57
2023-03-21T00:54:01.049Z,12.90
2023-03-21T00:57:05.550Z,13.87
2023-03-21T01:00:10.838Z,14.30
2023-03-21T01:03:24.301Z,14.35
2023-03-21T01:06:28.246Z,13.43
2023-03-21T01:09:30.796Z,11.75
2023-03-21T01:12:34.411Z,13.10
2023-03-21T01:15:45.351Z,11.07
2023-03-21T01:18:49.132Z,11.68
2023-03-21T01:21:59.553Z,13.30
2023-03-21T01:25:21.209Z,11.68
2023-03-21T01:28:28.626Z,10.27
2023-03-21T01:31:31.855Z,12.27
2023-03-21T01:34:34.376Z,10.77
2023-03-21T01:37:37.361Z,11.52
2023-03-21T01:40:41.639Z,10.38
2023-03-21T01:43:47.391Z,11.40
2023-03-21T01:47:09.277Z,10.73
2023-03-21T01:50:14.809Z,11.63
2023-03-21T01:53:22.283Z,10.10
2023-03-21T01:56:31.052Z,10.95
2023-03-21T01:59:50.413Z,10.50
2023-03-21T02:03:06.124Z,11.15
2023-03-21T02:06:22.852Z,14.27
2023-03-21T02:09:32.066Z,12.77
2023-03-21T02:12:35.262Z,10.98
2023-03-21T02:15:42.047Z,15.37
2023-03-21T02:18:54.378Z,10.00
2023-03-21T02:22:22.273Z,11.57
2023-03-21T02:25:37.646Z,11.82
2023-03-21T02:29:07.954Z,9.95
2023-03-21T02:32:37.822Z,10.73
2023-03-21T02:36:14.423Z,11.12
2023-03-21T02:39:27.020Z,10.32
2023-03-21T02:42:59.441Z,9.82
2023-03-21T02:46:16.650Z,10.25
2023-03-21T02:49:40.190Z,11.47
2023-03-21T02:52:47.180Z,12.23
2023-03-21T02:55:53.005Z,10.30
2023-03-21T02:58:57.737Z,10.10
2023-03-21T03:02:00.789Z,10.77
2023-03-21T03:05:20.724Z,11.00
2023-03-21T03:08:50.173Z,9.00
2023-03-21T03:12:17.375Z,9.23
2023-03-21T03:15:45.678Z,9.27
2023-03-21T03:19:01.363Z,8.98
2023-03-21T03:22:10.348Z,12.57
2023-03-21T03:25:23.161Z,11.15
2023-03-21T03:28:39.195Z,10.15
2023-03-21T03:31:54.554Z,11.07
2023-03-21T03:34:58.861Z,9.15
2023-03-21T03:38:06.949Z,10.37
2023-03-21T03:41:19.130Z,10.65
2023-03-21T03:44:26.060Z,12.30
2023-03-21T03:47:50.883Z,12.98
2023-03-21T03:51:13.662Z,10.45
2023-03-21T03:54:23.058Z,9.97
2023-03-21T03:57:27.737Z,9.05
2023-03-21T04:00:45.759Z,9.80
2023-03-21T04:03:54.492Z,12.55
2023-03-21T04:07:03.535Z,16.80
2023-03-21T04:10:07.091Z,21.60
2023-03-21T04:13:13.717Z,11.23
2023-03-21T04:16:19.359Z,10.68
2023-03-21T04:19:22.834Z,9.20
2023-03-21T04:22:27.085Z,8.32
2023-03-21T04:25:34.797Z,8.33
2023-03-21T04:28:39.830Z,8.32
2023-03-21T04:31:43.177Z,7.95
2023-03-21T04:34:54.287Z,7.93
2023-03-21T04:37:57.533Z,10.18
2023-03-21T04:41:00.874Z,9.10
2023-03-21T04:44:05.128Z,7.72
2023-03-21T04:47:08.621Z,11.15
2023-03-21T04:50:13.776Z,7.95
2023-03-21T04:53:18.911Z,13.40
2023-03-21T04:56:23.584Z,13.67
2023-03-21T04:59:26.664Z,17.65
2023-03-21T05:02:29.985Z,13.95
2023-03-21T05:05:33.890Z,11.32
2023-03-21T05:08:37.311Z,8.57
2023-03-21T05:11:41.907Z,10.57
2023-03-21T05:14:45.042Z,8.75
2023-03-21T05:17:51.045Z,9.05
2023-03-21T05:20:55.426Z,10.00
2023-03-21T05:24:03.655Z,9.25
2023-03-21T05:27:06.854Z,9.33
2023-03-21T05:30:18.709Z,8.65
2023-03-21T05:33:23.021Z,9.90
2023-03-21T05:36:28.657Z,8.60
2023-03-21T05:39:35.028Z,9.65
2023-03-21T05:42:38.907Z,9.70
2023-03-21T05:45:49.822Z,9.90
2023-03-21T05:48:58.989Z,11.12
2023-03-21T05:52:10.620Z,9.55
2023-03-21T05:55:18.722Z,10.02
2023-03-21T05:58:23.686Z,12.00
2023-03-21T06:01:28.659Z,12.18
2023-03-21T06:04:36.141Z,10.30
2023-03-21T06:07:40.219Z,9.27
2023-03-21T06:10:50.175Z,9.95
2023-03-21T06:13:55.764Z,11.30
2023-03-21T06:17:03.711Z,10.95
2023-03-21T06:20:21.729Z,9.73
2023-03-21T06:23:31.135Z,12.52
2023-03-21T06:26:34.999Z,11.95
2023-03-21T06:29:41.997Z,7.53
2023-03-21T06:32:51.296Z,11.12
2023-03-21T06:36:01.177Z,8.82
2023-03-21T06:39:08.811Z,7.78
2023-03-21T06:42:15.666Z,8.80
2023-03-21T06:45:25.706Z,8.77
2023-03-21T06:48:29.132Z,9.70
2023-03-21T06:51:36.700Z,9.98
2023-03-21T06:54:43.214Z,9.27
2023-03-21T06:57:59.368Z,11.07
2023-03-21T07:01:05.742Z,7.50
2023-03-21T07:04:10.998Z,9.38
2023-03-21T07:07:16.735Z,8.52
2023-03-21T07:10:24.276Z,9.30
2023-03-21T07:13:29.085Z,8.57
2023-03-21T07:16:38.971Z,7.37
2023-03-21T07:19:45.707Z,9.48
2023-03-21T07:22:56.676Z,7.97
2023-03-21T07:26:02.577Z,20.48
2023-03-21T07:29:07.269Z,11.07
2023-03-21T07:32:17.881Z,7.93
2023-03-21T07:35:22.093Z,8.23
2023-03-21T07:38:26.484Z,8.90
2023-03-21T07:41:31.639Z,8.77
2023-03-21T07:44:43.904Z,12.23
2023-03-21T07:47:48.055Z,8.47
2023-03-21T07:50:52.117Z,10.38
2023-03-21T07:53:57.085Z,17.87
2023-03-21T07:57:05.737Z,8.85
2023-03-21T08:00:22.898Z,9.07
2023-03-21T08:03:29.367Z,8.73
2023-03-21T08:06:33.747Z,6.78
2023-03-21T08:09:39.157Z,8.05
2023-03-21T08:12:42.961Z,7.15
2023-03-21T08:15:47.263Z,7.07
2023-03-21T08:18:53.651Z,7.23
2023-03-21T08:22:01.646Z,8.25
2023-03-21T08:25:10.266Z,6.97
2023-03-21T08:28:13.839Z,8.18
2023-03-21T08:31:18.148Z,8.38
2023-03-21T08:34:24.031Z,6.93
2023-03-21T08:37:28.822Z,7.28
2023-03-21T08:40:34.083Z,8.75
2023-03-21T08:43:38.458Z,6.95
2023-03-21T08:46:54.845Z,7.10
2023-03-21T08:49:59.773Z,5.90
2023-03-21T08:53:03.427Z,6.25
2023-03-21T08:56:06.897Z,6.97
2023-03-21T08:59:10.223Z,6.43
2023-03-21T09:02:18.667Z,7.25
2023-03-21T09:05:23.582Z,7.43
2023-03-21T09:08:33.304Z,7.45
2023-03-21T09:11:36.958Z,4.80
2023-03-21T09:14:45.005Z,5.75
2023-03-21T09:17:53.100Z,5.15
2023-03-21T09:21:01.804Z,6.33
2023-03-21T09:24:12.661Z,5.45
2023-03-21T09:27:23.075Z,5.30
2023-03-21T09:30:35.666Z,6.40
2023-03-21T09:33:41.329Z,6.80
2023-03-21T09:36:48.806Z,5.20
2023-03-21T09:39:52.217Z,7.50
2023-03-21T09:43:05.753Z,6.32
2023-03-21T09:46:32.797Z,6.07
2023-03-21T09:49:54.567Z,7.80
2023-03-21T09:53:06.207Z,6.33
2023-03-21T09:56:15.595Z,5.35
2023-03-21T09:59:33.600Z,4.68
2023-03-21T10:02:50.743Z,8.68
2023-03-21T10:06:05.008Z,5.75
2023-03-21T10:09:30.054Z,6.60
2023-03-21T10:12:42.611Z,7.05
2023-03-21T10:16:05.736Z,8.13
2023-03-21T10:19:13.824Z,5.05
2023-03-21T10:22:16.674Z,5.18
2023-03-21T10:25:54.787Z,4.77
2023-03-21T10:28:59.841Z,7.32
2023-03-21T10:32:04.193Z,4.03
2023-03-21T10:35:13.472Z,4.72
2023-03-21T10:38:20.332Z,5.15
2023-03-21T10:41:24.003Z,4.53
2023-03-21T10:44:36.963Z,4.32
2023-03-21T10:47:43.027Z,4.12
2023-03-21T10:50:56.386Z,5.53
2023-03-21T10:54:05.544Z,4.85
2023-03-21T10:57:20.024Z,4.70
2023-03-21T11:00:29.801Z,3.80
2023-03-21T11:03:49.896Z,4.40
2023-03-21T11:06:57.114Z,3.17
2023-03-21T11:10:14.610Z,3.50
2023-03-21T11:13:35.877Z,4.07
2023-03-21T11:16:43.466Z,3.60
2023-03-21T11:19:57.911Z,3.87
2023-03-21T11:23:03.804Z,4.80
2023-03-21T11:26:25.616Z,6.22
2023-03-21T11:29:45.727Z,7.63
2023-03-21T11:32:51.232Z,5.57
2023-03-21T11:36:08.217Z,3.42
2023-03-21T11:39:28.207Z,3.50
2023-03-21T11:42:41.158Z,5.05
2023-03-21T11:46:06.480Z,4.60
2023-03-21T11:49:10.803Z,3.70
2023-03-21T11:52:40.193Z,6.53
2023-03-21T11:55:46.454Z,4.22
2023-03-21T12:03:20.037Z,4.47
2023-03-21T12:06:36.774Z,4.57
2023-03-21T12:09:51.226Z,4.40
2023-03-21T12:13:17.172Z,4.05
2023-03-21T12:16:24.360Z,3.83
2023-03-21T12:19:47.327Z,3.50
2023-03-21T12:23:01.719Z,4.60
2023-03-21T12:26:31.199Z,4.40
2023-03-21T12:29:49.913Z,4.62
2023-03-21T12:33:28.636Z,5.10
2023-03-21T12:36:41.417Z,3.90
2023-03-21T12:39:50.001Z,5.05
2023-03-21T12:43:26.746Z,4.80
2023-03-21T12:46:53.825Z,4.95
2023-03-21T12:50:11.844Z,6.87
2023-03-21T12:53:51.732Z,5.57
2023-03-21T12:57:03.727Z,6.75
2023-03-21T13:00:22.921Z,5.82
2023-03-21T13:03:40.587Z,5.03
2023-03-21T13:06:56.040Z,4.97
2023-03-21T13:10:02.271Z,5.63
2023-03-21T13:13:25.036Z,6.15
2023-03-21T13:17:01.294Z,6.80
2023-03-21T13:20:20.391Z,4.75
2023-03-21T13:23:38.021Z,4.93
2023-03-21T13:26:49.858Z,4.20
2023-03-21T13:30:14.443Z,5.57
2023-03-21T13:33:30.251Z,4.82
2023-03-21T13:36:42.785Z,5.00
2023-03-21T13:39:50.791Z,5.78
2023-03-21T13:42:59.685Z,4.40
2023-03-21T13:46:15.946Z,4.57
2023-03-21T13:49:37.066Z,5.62
2023-03-21T13:53:02.058Z,5.50
2023-03-21T13:56:14.553Z,11.50
2023-03-21T13:59:41.972Z,4.43
2023-03-21T14:03:03.790Z,4.03
2023-03-21T14:06:11.129Z,7.05
2023-03-21T14:09:29.726Z,4.35
2023-03-21T14:12:43.914Z,7.25
2023-03-21T14:15:59.135Z,4.77
2023-03-21T14:19:13.104Z,4.70
2023-03-21T14:22:18.484Z,5.57
2023-03-21T14:25:31.423Z,4.50
2023-03-21T14:28:43.195Z,6.00
2023-03-21T14:31:50.855Z,4.57
2023-03-21T14:35:01.807Z,5.65
2023-03-21T14:38:09.624Z,5.22
2023-03-21T14:41:27.253Z,4.00
2023-03-21T14:44:53.411Z,4.22
2023-03-21T14:48:23.718Z,6.23
2023-03-21T14:51:38.682Z,4.10
2023-03-21T14:54:45.042Z,4.65
2023-03-21T14:57:56.751Z,4.75
2023-03-21T15:01:08.002Z,4.72
2023-03-21T15:04:23.128Z,4.57
2023-03-21T15:07:32.523Z,4.85
2023-03-21T15:10:38.828Z,4.15
2023-03-21T15:13:52.759Z,4.55
2023-03-21T15:17:05.334Z,4.57
2023-03-21T15:20:16.118Z,5.70
2023-03-21T15:23:36.021Z,5.65
2023-03-21T15:26:40.277Z,4.57
2023-03-21T15:29:45.820Z,6.03
2023-03-21T15:32:52.727Z,5.25
2023-03-21T15:36:10.078Z,5.00
2023-03-21T15:39:24.110Z,4.80
2023-03-21T15:42:38.883Z,6.87
2023-03-21T15:45:58.766Z,5.40
2023-03-21T15:49:17.771Z,6.62
2023-03-21T15:52:28.216Z,5.77
2023-03-21T15:55:48.494Z,5.00
2023-03-21T15:59:05.869Z,7.22
2023-03-21T16:02:18.358Z,5.40
2023-03-21T16:05:30.754Z,6.45
2023-03-21T16:08:46.315Z,7.10
2023-03-21T16:12:00.287Z,6.40
2023-03-21T16:15:07.731Z,5.32
2023-03-21T16:18:17.770Z,5.62
2023-03-21T16:21:32.077Z,6.57
2023-03-21T16:24:39.767Z,5.47
2023-03-21T16:27:45.797Z,6.22
2023-03-21T16:30:57.941Z,6.90
2023-03-21T16:34:10.675Z,6.95
2023-03-21T16:37:25.256Z,5.53
2023-03-21T16:40:39.817Z,6.73
2023-03-21T16:43:48.822Z,6.47
2023-03-21T16:47:02.175Z,5.25
2023-03-21T16:50:27.771Z,7.45
2023-03-21T16:53:39.158Z,7.55
2023-03-21T16:56:51.991Z,8.10
2023-03-21T17:00:03.856Z,9.50
2023-03-21T17:03:24.784Z,8.27
2023-03-21T17:06:30.699Z,9.27
2023-03-21T17:09:48.199Z,6.80
2023-03-21T17:12:53.757Z,9.53
2023-03-21T17:15:57.118Z,10.60
2023-03-21T17:19:01.161Z,8.75
2023-03-21T17:22:14.549Z,8.35
2023-03-21T17:25:20.111Z,9.15
2023-03-21T17:28:24.079Z,11.27
2023-03-21T17:31:36.418Z,10.85
2023-03-21T17:34:40.725Z,11.38
2023-03-21T17:37:53.971Z,9.90
2023-03-21T17:41:01.737Z,13.05
2023-03-21T17:44:05.835Z,14.63
2023-03-21T17:47:15.742Z,13.95
2023-03-21T17:50:23.816Z,15.43
2023-03-21T17:53:40.669Z,12.05
2023-03-21T17:56:51.839Z,14.50
2023-03-21T18:00:14.687Z,14.13
2023-03-21T18:03:19.726Z,11.35
2023-03-21T18:06:29.698Z,33.40
2023-03-21T18:09:34.472Z,26.17
2023-03-21T18:12:59.148Z,31.87
2023-03-21T18:16:21.918Z,65.87
2023-03-21T18:19:28.737Z,28.62
2023-03-21T18:22:43.780Z,22.52
2023-03-21T18:25:47.166Z,16.70
2023-03-21T18:32:24.125Z,18.93
2023-03-21T18:35:35.012Z,18.87
2023-03-21T18:38:42.354Z,19.73
2023-03-21T18:41:48.255Z,27.98
2023-03-21T18:45:07.676Z,33.65
2023-03-21T18:48:21.678Z,29.47
2023-03-21T18:51:36.755Z,23.42
2023-03-21T18:54:45.336Z,22.70
2023-03-21T18:58:02.763Z,24.40
2023-03-21T19:01:06.493Z,24.37
2023-03-21T19:04:21.465Z,22.73
2023-03-21T19:07:48.628Z,24.83
2023-03-21T19:10:54.510Z,21.17
2023-03-21T19:14:02.719Z,22.37
2023-03-21T19:20:52.621Z,26.27
2023-03-21T19:24:26.541Z,45.85
2023-03-21T19:27:38.945Z,40.75
2023-03-21T19:30:49.660Z,39.38
2023-03-21T19:33:54.277Z,39.88
2023-03-21T19:37:11.153Z,34.93
2023-03-21T19:40:15.766Z,33.58
2023-03-21T19:43:33.085Z,30.37
2023-03-21T19:46:52.759Z,27.50
2023-03-21T19:50:45.580Z,30.88
2023-03-21T19:53:34.697Z,27.67
2023-03-21T19:56:50.677Z,32.92
2023-03-21T20:00:01.278Z,32.40
2023-03-21T20:03:10.807Z,37.22
2023-03-21T20:06:25.136Z,41.53
2023-03-21T20:09:50.786Z,38.33
2023-03-21T20:13:02.963Z,34.75
2023-03-21T20:16:14.009Z,32.53
2023-03-21T20:19:20.788Z,37.47
2023-03-21T20:23:05.245Z,30.73
2023-03-21T20:26:14.780Z,26.17
2023-03-21T20:32:54.850Z,24.30
2023-03-21T20:39:42.687Z,19.95
2023-03-21T20:42:48.666Z,22.07
2023-03-21T20:46:08.174Z,15.68
2023-03-21T20:49:16.982Z,18.20
2023-03-21T20:53:00.881Z,16.55
2023-03-21T20:55:50.078Z,15.15
2023-03-21T20:59:14.588Z,14.20
2023-03-21T21:02:27.713Z,15.25
2023-03-21T21:05:38.837Z,14.40
2023-03-21T21:08:42.613Z,12.65
2023-03-21T21:12:10.321Z,15.88
2023-03-21T21:15:17.050Z,13.97
2023-03-21T21:18:24.239Z,14.85
2023-03-21T21:21:30.761Z,15.63
2023-03-21T21:24:41.888Z,12.48
2023-03-21T21:27:54.774Z,11.30
2023-03-21T21:31:10.762Z,13.13
2023-03-21T21:34:20.774Z,12.40
2023-03-21T21:37:31.774Z,13.07
2023-03-21T21:40:34.539Z,15.90
2023-03-21T21:43:38.117Z,12.63
2023-03-21T21:46:46.828Z,14.43
2023-03-21T21:49:51.129Z,16.70
2023-03-21T21:53:03.872Z,12.77
2023-03-21T21:56:07.480Z,12.40
2023-03-21T21:59:11.534Z,14.20
2023-03-21T22:02:16.864Z,14.87
2023-03-21T22:05:27.874Z,13.62
2023-03-21T22:08:32.966Z,20.08
2023-03-21T22:11:37.820Z,19.50
2023-03-21T22:14:41.873Z,16.52
2023-03-21T22:17:46.754Z,17.77
2023-03-21T22:20:50.710Z,14.60
2023-03-21T22:23:54.107Z,16.42
2023-03-21T22:26:58.198Z,18.92
2023-03-21T22:30:04.808Z,17.35
2023-03-21T22:33:09.990Z,17.03
2023-03-21T22:36:14.385Z,18.48
2023-03-21T22:39:26.741Z,16.10
2023-03-21T22:42:29.898Z,15.85
2023-03-21T22:45:34.849Z,14.70
2023-03-21T22:48:38.653Z,15.73
2023-03-21T22:51:42.270Z,16.92
2023-03-21T22:54:49.250Z,15.82
2023-03-21T22:57:52.100Z,16.30
2023-03-21T23:01:00.949Z,17.00
2023-03-21T23:04:04.475Z,17.47
2023-03-21T23:07:13.687Z,16.62
2023-03-21T23:10:17.722Z,16.70
2023-03-21T23:13:23.834Z,17.62
2023-03-21T23:16:29.045Z,17.30
2023-03-21T23:19:32.464Z,17.97
2023-03-21T23:22:36.129Z,18.90
2023-03-21T23:25:42.336Z,18.83
2023-03-21T23:28:45.821Z,15.90
2023-03-21T23:31:48.772Z,16.73
2023-03-21T23:34:51.341Z,18.10
2023-03-21T23:37:54.742Z,16.50
2023-03-21T23:41:00.137Z,17.08
2023-03-21T23:44:04.519Z,18.30
2023-03-21T23:47:07.095Z,17.30
2023-03-21T23:50:10.897Z,17.67
2023-03-21T23:53:14.084Z,16.37
2023-03-21T23:56:25.780Z,17.30
2023-03-21T23:59:30.621Z,19.77
